Akron, Colorado
Current Conditions -  °F | °C
As of 9:53 PM on Monday 22 Dec 2014 (Local Time) from KAKO Reporting Station
Scattered Clouds Scattered Clouds  
Wind Chill: 14°   Ceiling: Unl
Heat Index: 27°   Visibility: 10mi
Dew Point: 20°   Wind: 20mph
Humidity: 75%   Direction: 300°WNW
Pressure: 29.76"   Gusts: 28mph
Location:  40.16°N, 103.21°W
Report Text: KAKO 230453Z AUTO 30017G24KT 10SM SCT085 M03/M07 A2976 RMK AO2 SLP103 T10281067
Loading
Personal Weather Stations






























Interactive Weather Map New forecast layout! Learn more

10-Day Weather Forecast

Advertisements
Track Severe Weather on mobile